createdAt,value
2023-03-27T00:01:13.548Z,99579.55
2023-03-27T00:06:36.681Z,99568.66
2023-03-27T00:11:59.611Z,99570.33
2023-03-27T00:17:22.389Z,99562.69
2023-03-27T00:22:44.632Z,99564.63
2023-03-27T00:28:08.745Z,99571.02
2023-03-27T00:33:31.668Z,99578.25
2023-03-27T00:38:54.490Z,99582.96
2023-03-27T00:44:36.484Z,99577.95
2023-03-27T00:50:00.804Z,99579.81
2023-03-27T00:55:26.461Z,99589.82
2023-03-27T01:00:50.470Z,99588.91
2023-03-27T01:06:14.727Z,99595.81
2023-03-27T01:12:17.463Z,99600.68
2023-03-27T01:17:59.506Z,99611.34
2023-03-27T01:29:59.831Z,99635.97
2023-03-27T01:36:09.293Z,99649.70
2023-03-27T01:41:50.228Z,99663.20
2023-03-27T01:47:20.470Z,99665.70
2023-03-27T01:53:09.662Z,99660.78
2023-03-27T01:58:48.342Z,99661.31
2023-03-27T02:04:15.306Z,99670.39
2023-03-27T02:09:51.578Z,99669.12
2023-03-27T02:15:25.168Z,99665.08
2023-03-27T02:20:48.720Z,99668.52
2023-03-27T02:26:13.757Z,99660.45
2023-03-27T02:31:59.460Z,99658.12
2023-03-27T02:37:33.128Z,99657.11
2023-03-27T02:43:24.989Z,99666.37
2023-03-27T02:48:57.223Z,99674.41
2023-03-27T02:54:30.548Z,99666.56
2023-03-27T02:59:57.882Z,99665.87
2023-03-27T03:05:25.406Z,99682.38
2023-03-27T03:10:51.356Z,99680.80
2023-03-27T03:16:14.407Z,99687.86
2023-03-27T03:21:38.133Z,99691.27
2023-03-27T03:27:00.869Z,99690.18
2023-03-27T03:32:23.590Z,99697.33
2023-03-27T03:37:49.547Z,99698.10
2023-03-27T03:43:12.193Z,99684.98
2023-03-27T03:48:35.194Z,99690.26
2023-03-27T03:53:57.616Z,99683.14
2023-03-27T03:59:22.066Z,99678.17
2023-03-27T04:04:46.582Z,99683.84
2023-03-27T04:10:09.465Z,99692.03
2023-03-27T04:15:32.697Z,99689.91
2023-03-27T04:20:55.530Z,99682.40
2023-03-27T04:26:19.509Z,99687.98
2023-03-27T04:31:43.427Z,99693.56
2023-03-27T04:37:06.279Z,99696.53
2023-03-27T04:42:29.019Z,99709.74
2023-03-27T04:47:52.151Z,99717.67
2023-03-27T04:53:14.460Z,99723.19
2023-03-27T04:58:38.043Z,99727.92
2023-03-27T05:04:02.682Z,99727.55
2023-03-27T05:09:26.046Z,99740.52
2023-03-27T05:14:49.002Z,99741.06
2023-03-27T05:20:21.332Z,99752.88
2023-03-27T05:25:59.770Z,99760.59
2023-03-27T05:31:11.674Z,99772.70
2023-03-27T05:36:35.800Z,99784.83
2023-03-27T05:41:58.406Z,99781.88
2023-03-27T05:47:21.196Z,99783.88
2023-03-27T05:52:43.663Z,99802.95
2023-03-27T05:58:07.782Z,99792.96
2023-03-27T06:03:47.719Z,99806.03
2023-03-27T06:09:10.250Z,99808.45
2023-03-27T06:14:32.507Z,99822.39
2023-03-27T06:19:55.467Z,99838.10
2023-03-27T06:25:18.035Z,99839.72
2023-03-27T06:30:42.427Z,99835.66
2023-03-27T06:36:05.791Z,99845.72
2023-03-27T06:41:30.922Z,99842.00
2023-03-27T06:46:53.309Z,99857.80
2023-03-27T06:52:16.174Z,99869.52
2023-03-27T06:57:38.618Z,99879.85
2023-03-27T07:03:03.055Z,99874.32
2023-03-27T07:08:28.421Z,99884.66
2023-03-27T07:13:50.835Z,99894.40
2023-03-27T07:19:13.156Z,99895.25
2023-03-27T07:24:35.461Z,99904.27
2023-03-27T07:29:59.709Z,99918.39
2023-03-27T07:35:22.296Z,99911.88
2023-03-27T07:40:46.483Z,99906.57
2023-03-27T07:46:09.522Z,99908.27
2023-03-27T07:51:33.267Z,99919.22
2023-03-27T07:56:55.706Z,99932.34
2023-03-27T08:02:18.062Z,99962.89
2023-03-27T08:07:45.571Z,99964.05
2023-03-27T08:13:08.784Z,99962.53
2023-03-27T08:18:31.244Z,99957.98
2023-03-27T08:23:57.844Z,99981.62
2023-03-27T08:29:21.331Z,99980.58
2023-03-27T08:34:43.921Z,99989.91
2023-03-27T08:40:10.804Z,99990.70
2023-03-27T08:45:43.880Z,100008.93
2023-03-27T08:51:22.998Z,100014.73
2023-03-27T08:56:45.780Z,100015.77
2023-03-27T09:02:59.624Z,100011.39
2023-03-27T09:08:25.869Z,100021.67
2023-03-27T09:13:54.053Z,100009.77
2023-03-27T09:19:55.961Z,100008.12
2023-03-27T09:25:25.789Z,100012.94
2023-03-27T09:30:51.850Z,100019.16
2023-03-27T09:36:24.879Z,100032.48
2023-03-27T09:41:55.757Z,100039.98
2023-03-27T09:47:23.054Z,100058.80
2023-03-27T09:52:49.097Z,100080.72
2023-03-27T09:58:39.271Z,100077.40
2023-03-27T10:04:07.801Z,100062.50
2023-03-27T10:09:48.989Z,100072.64
2023-03-27T10:20:49.753Z,100092.08
2023-03-27T10:26:17.589Z,100114.42
2023-03-27T10:31:45.713Z,100110.03
2023-03-27T10:37:12.270Z,100111.75
2023-03-27T10:42:37.525Z,100127.72
2023-03-27T10:48:04.524Z,100115.73
2023-03-27T10:53:40.927Z,100171.77
2023-03-27T10:59:28.204Z,100166.85
2023-03-27T11:04:54.781Z,100180.22
2023-03-27T11:10:29.966Z,100177.92
2023-03-27T11:16:17.532Z,100179.05
2023-03-27T11:21:56.580Z,100191.42
2023-03-27T11:27:32.850Z,100184.23
2023-03-27T11:33:17.559Z,100169.74
2023-03-27T11:38:51.669Z,100171.20
2023-03-27T11:44:15.783Z,100186.52
2023-03-27T11:50:11.577Z,100209.86
2023-03-27T11:55:49.517Z,100208.89
2023-03-27T12:01:37.862Z,100179.98
2023-03-27T12:07:23.625Z,100198.45
2023-03-27T12:13:03.303Z,100197.34
2023-03-27T12:19:20.993Z,100216.61
2023-03-27T12:24:57.415Z,100226.27
2023-03-27T12:30:49.195Z,100215.27
2023-03-27T12:36:16.478Z,100225.62
2023-03-27T12:41:49.730Z,100236.31
2023-03-27T12:47:32.028Z,100253.84
2023-03-27T12:52:58.039Z,100274.33
2023-03-27T12:58:24.393Z,100279.50
2023-03-27T13:04:07.597Z,100283.23
2023-03-27T13:10:12.954Z,100291.67
2023-03-27T13:16:08.942Z,100317.19
2023-03-27T13:22:00.094Z,100289.41
2023-03-27T13:27:58.140Z,100336.15
2023-03-27T13:33:40.201Z,100350.78
2023-03-27T13:39:13.907Z,100348.15
2023-03-27T13:45:08.076Z,100356.02
2023-03-27T13:50:59.471Z,100362.27
2023-03-27T13:56:55.642Z,100348.58
2023-03-27T14:02:41.612Z,100364.97
2023-03-27T14:08:37.142Z,100374.73
2023-03-27T14:14:27.236Z,100393.38
2023-03-27T14:20:22.544Z,100391.12
2023-03-27T14:25:52.164Z,100401.20
2023-03-27T14:31:19.707Z,100389.20
2023-03-27T14:36:49.587Z,100409.66
2023-03-27T14:42:18.097Z,100401.38
2023-03-27T14:47:43.562Z,100413.92
2023-03-27T14:53:09.706Z,100430.31
2023-03-27T14:58:35.558Z,100421.80
2023-03-27T15:03:58.522Z,100428.75
2023-03-27T15:09:26.895Z,100436.22
2023-03-27T15:14:52.005Z,100444.80
2023-03-27T15:20:20.843Z,100433.73
2023-03-27T15:26:03.759Z,100451.59
2023-03-27T15:31:29.222Z,100454.81
2023-03-27T15:36:55.280Z,100494.86
2023-03-27T15:42:28.567Z,100496.79
2023-03-27T15:47:51.573Z,100493.63
2023-03-27T15:53:15.244Z,100507.82
2023-03-27T15:58:48.343Z,100489.05
2023-03-27T16:04:19.679Z,100510.30
2023-03-27T16:09:49.765Z,100527.73
2023-03-27T16:15:16.383Z,100527.48
2023-03-27T16:20:45.964Z,100529.20
2023-03-27T16:26:08.769Z,100544.39
2023-03-27T16:31:36.184Z,100536.41
2023-03-27T16:36:59.942Z,100550.27
2023-03-27T16:42:26.493Z,100569.78
2023-03-27T16:47:53.146Z,100550.88
2023-03-27T16:53:14.244Z,100570.88
2023-03-27T16:58:36.829Z,100582.09
2023-03-27T17:03:59.456Z,100586.81
2023-03-27T17:09:23.478Z,100592.80
2023-03-27T17:14:46.287Z,100620.00
2023-03-27T17:20:09.427Z,100612.48
2023-03-27T17:25:31.772Z,100617.88
2023-03-27T17:31:04.021Z,100630.92
2023-03-27T17:36:38.786Z,100633.31
2023-03-27T17:41:51.125Z,100636.73
2023-03-27T17:47:13.882Z,100642.54
2023-03-27T17:52:36.294Z,100647.56
2023-03-27T17:58:08.748Z,100650.40
2023-03-27T18:03:23.641Z,100647.41
2023-03-27T18:08:47.158Z,100648.23
2023-03-27T18:14:09.662Z,100654.20
2023-03-27T18:19:32.866Z,100661.80
2023-03-27T18:24:55.323Z,100657.78
2023-03-27T18:30:19.201Z,100661.53
2023-03-27T18:35:43.173Z,100669.86
2023-03-27T18:41:07.273Z,100672.23
2023-03-27T18:46:29.946Z,100661.06
2023-03-27T18:51:52.718Z,100663.25
2023-03-27T18:57:17.891Z,100658.80
2023-03-27T19:02:41.851Z,100653.39
2023-03-27T19:08:04.241Z,100656.34
2023-03-27T19:13:26.544Z,100659.52
2023-03-27T19:18:50.084Z,100657.37
2023-03-27T19:24:12.585Z,100655.53
2023-03-27T19:29:36.053Z,100653.97
2023-03-27T19:34:58.426Z,100649.22
2023-03-27T19:40:21.906Z,100647.98
2023-03-27T19:45:46.014Z,100641.69
2023-03-27T19:51:18.604Z,100635.56
2023-03-27T19:56:35.575Z,100628.73
2023-03-27T20:01:58.081Z,100617.55
2023-03-27T20:07:20.997Z,100610.83
2023-03-27T20:12:44.268Z,100614.06
2023-03-27T20:18:06.667Z,100606.86
2023-03-27T20:23:31.658Z,100601.05
2023-03-27T20:28:54.431Z,100600.55
2023-03-27T20:34:20.179Z,100600.29
2023-03-27T20:39:47.575Z,100587.88
2023-03-27T20:45:11.652Z,100585.28
2023-03-27T20:50:36.229Z,100572.30
2023-03-27T20:56:05.538Z,100573.39
2023-03-27T21:01:29.575Z,100571.48
2023-03-27T21:06:55.624Z,100568.81
2023-03-27T21:12:18.310Z,100554.78
2023-03-27T21:17:40.779Z,100547.81
2023-03-27T21:23:03.061Z,100547.13
2023-03-27T21:28:25.925Z,100546.91
2023-03-27T21:33:48.675Z,100539.70
2023-03-27T21:39:11.102Z,100537.11
2023-03-27T21:44:33.343Z,100540.08
2023-03-27T21:49:55.740Z,100537.61
2023-03-27T21:55:18.049Z,100527.11
2023-03-27T22:00:40.308Z,100518.77
2023-03-27T22:11:26.587Z,100508.84
2023-03-27T22:16:48.874Z,100496.34
2023-03-27T22:22:11.180Z,100497.14
2023-03-27T22:27:33.518Z,100497.25
2023-03-27T22:32:55.850Z,100498.94
2023-03-27T22:38:18.144Z,100503.17
2023-03-27T22:43:41.940Z,100500.03
2023-03-27T22:49:08.551Z,100494.82
2023-03-27T22:54:31.730Z,100485.66
2023-03-27T22:59:54.233Z,100484.55
2023-03-27T23:05:16.729Z,100475.23
2023-03-27T23:10:40.076Z,100470.44
2023-03-27T23:16:03.019Z,100470.09
2023-03-27T23:21:26.881Z,100461.92
2023-03-27T23:26:49.365Z,100449.41
2023-03-27T23:32:12.347Z,100448.31
2023-03-27T23:37:35.552Z,100437.60
2023-03-27T23:42:57.786Z,100435.88
2023-03-27T23:48:20.028Z,100422.25
2023-03-27T23:53:43.464Z,100412.25
2023-03-27T23:59:05.688Z,100411.64
